Time;durP1;ratioP1;P1;durP2;ratioP2;P2;SDS_P1;SDS_P2;PMS_P1;PMS_P2;Temp;Humidity;BMP_temperature;BMP_pressure;BME280_temperature;BME280_humidity;BME280_pressure;Samples;Min_cycle;Max_cycle;Signal;HPM_P1;HPM_P2
2022/11/12 00:00:24;;;;;;;10.77;6.80;;;7.50;99.90;;;;;;5047205;28;20069;-66
2022/11/12 00:02:49;;;;;;;13.20;8.40;;;7.40;99.90;;;;;;5049069;28;20055;-66
2022/11/12 00:05:15;;;;;;;13.48;8.25;;;7.50;99.90;;;;;;5042844;28;20044;-66
2022/11/12 00:07:41;;;;;;;13.85;7.88;;;;;;;;;;5041771;28;20073;-65
2022/11/12 00:10:07;;;;;;;11.57;7.80;;;7.30;99.90;;;;;;5035485;28;20061;-66
2022/11/12 00:12:33;;;;;;;10.60;7.03;;;7.20;99.90;;;;;;5035933;28;20037;-66
2022/11/12 00:14:58;;;;;;;12.77;7.03;;;7.00;99.90;;;;;;5038844;28;20048;-65
2022/11/12 00:17:24;;;;;;;12.57;6.70;;;7.10;99.90;;;;;;5045391;28;20073;-66
2022/11/12 00:19:49;;;;;;;9.00;7.53;;;7.30;99.90;;;;;;5035832;28;20121;-66
2022/11/12 00:22:15;;;;;;;10.65;7.30;;;7.10;99.90;;;;;;5031884;28;20048;-66
2022/11/12 00:24:41;;;;;;;13.80;8.50;;;7.00;99.90;;;;;;5035654;28;20034;-66
2022/11/12 00:27:06;;;;;;;11.68;7.57;;;7.00;99.90;;;;;;5035722;28;20047;-65
2022/11/12 00:29:32;;;;;;;12.68;7.97;;;7.00;99.90;;;;;;5035533;28;20044;-66
2022/11/12 00:31:57;;;;;;;8.88;6.40;;;7.00;99.90;;;;;;5035624;28;20037;-66
2022/11/12 00:34:23;;;;;;;8.73;6.90;;;6.80;99.90;;;;;;5049198;28;20549;-65
2022/11/12 00:36:48;;;;;;;10.95;6.43;;;6.90;99.90;;;;;;5034545;28;20044;-65
2022/11/12 00:39:14;;;;;;;8.90;6.45;;;6.80;99.90;;;;;;5037026;28;20051;-66
2022/11/12 00:41:39;;;;;;;15.23;7.47;;;6.70;99.90;;;;;;5046748;28;20112;-66
2022/11/12 00:44:05;;;;;;;10.65;7.30;;;6.50;99.90;;;;;;5049524;28;20045;-65
2022/11/12 00:46:30;;;;;;;11.90;7.05;;;6.50;99.90;;;;;;5048436;28;20088;-66
2022/11/12 00:48:56;;;;;;;10.55;7.65;;;;;;;;;;5035316;28;20045;-65
2022/11/12 00:51:22;;;;;;;11.63;7.32;;;6.60;99.90;;;;;;5049431;28;20096;-65
2022/11/12 00:53:48;;;;;;;12.23;8.60;;;6.50;99.90;;;;;;5044744;28;20119;-65
2022/11/12 00:56:14;;;;;;;18.02;10.07;;;;;;;;;;5036876;28;20060;-65
2022/11/12 00:58:40;;;;;;;13.90;9.55;;;6.60;99.90;;;;;;5044112;28;20033;-65
2022/11/12 01:01:11;;;;;;;15.32;9.95;;;6.90;99.90;;;;;;5040933;28;20373;-65
2022/11/12 01:03:37;;;;;;;14.63;10.45;;;6.80;99.90;;;;;;5046083;28;20037;-65
2022/11/12 01:06:05;;;;;;;16.42;10.20;;;6.80;99.90;;;;;;5035208;28;20041;-66
2022/11/12 01:08:31;;;;;;;19.65;10.75;;;6.90;99.90;;;;;;5034348;28;20045;-65
2022/11/12 01:11:07;;;;;;;15.10;10.75;;;6.80;99.90;;;;;;5034771;28;20050;-65
2022/11/12 01:13:33;;;;;;;13.85;9.50;;;6.70;99.90;;;;;;5034853;28;20489;-65
2022/11/12 01:16:03;;;;;;;13.75;8.43;;;6.80;99.90;;;;;;5046410;28;20116;-65
2022/11/12 01:18:29;;;;;;;17.10;10.43;;;6.80;99.90;;;;;;5053086;28;20033;-65
2022/11/12 01:20:58;;;;;;;15.10;9.80;;;6.80;99.90;;;;;;5054546;28;20098;-65
2022/11/12 01:23:23;;;;;;;13.50;9.50;;;6.70;99.90;;;;;;5040828;28;20049;-66
2022/11/12 01:25:49;;;;;;;10.02;7.95;;;6.60;99.90;;;;;;5047358;28;20434;-65
2022/11/12 01:28:14;;;;;;;14.82;9.65;;;6.70;99.90;;;;;;5034801;28;20515;-65
2022/11/12 01:30:40;;;;;;;16.67;10.10;;;6.70;99.90;;;;;;5036652;28;20437;-65
2022/11/12 01:33:05;;;;;;;15.02;9.98;;;6.60;99.90;;;;;;5054194;28;20115;-65
2022/11/12 01:35:31;;;;;;;12.77;9.13;;;6.70;99.90;;;;;;5039786;28;20069;-65
2022/11/12 01:37:57;;;;;;;16.83;11.13;;;6.70;99.90;;;;;;5034548;28;20038;-65
2022/11/12 01:40:22;;;;;;;12.05;7.57;;;6.60;99.90;;;;;;5033058;28;20046;-65
2022/11/12 01:42:51;;;;;;;11.18;8.50;;;;;;;;;;5048394;28;20068;-65
2022/11/12 01:45:17;;;;;;;13.10;9.25;;;6.60;99.90;;;;;;5044809;28;20507;-65
2022/11/12 01:47:45;;;;;;;12.00;7.95;;;6.40;99.90;;;;;;5037148;28;20041;-65
2022/11/12 01:50:20;;;;;;;8.90;6.82;;;6.20;99.90;;;;;;5034291;28;20041;-66
2022/11/12 01:52:51;;;;;;;10.95;7.47;;;6.30;99.90;;;;;;5036454;28;20025;-65
2022/11/12 01:55:20;;;;;;;13.60;9.15;;;6.20;99.90;;;;;;5042995;28;20075;-66
2022/11/12 01:57:56;;;;;;;11.05;7.65;;;;;;;;;;5034072;28;20042;-65
2022/11/12 02:00:21;;;;;;;;;;;6.10;99.90;;;;;;5045378;28;20045;-65
2022/11/12 02:02:53;;;;;;;14.52;9.98;;;6.10;99.90;;;;;;5047991;28;19971;-65
2022/11/12 02:05:21;;;;;;;20.08;11.38;;;6.20;99.90;;;;;;5033610;28;20049;-65
2022/11/12 02:07:48;;;;;;;16.10;10.80;;;;;;;;;;5046807;28;20545;-65
2022/11/12 02:10:14;;;;;;;20.45;11.57;;;6.40;99.90;;;;;;5040002;28;20072;-65
2022/11/12 02:15:41;;;;;;;15.02;11.23;;;6.30;99.90;;;;;;4984979;28;20046;-65
2022/11/12 02:18:07;;;;;;;18.90;12.60;;;6.30;99.90;;;;;;5030727;28;20050;-65
2022/11/12 02:20:34;;;;;;;15.50;10.35;;;6.30;99.90;;;;;;5053372;28;20115;-65
2022/11/12 02:23:00;;;;;;;12.60;8.27;;;6.20;99.90;;;;;;5052262;28;20175;-65
2022/11/12 02:25:27;;;;;;;11.95;9.38;;;6.10;99.90;;;;;;5050706;28;20120;-65
2022/11/12 02:27:54;;;;;;;14.60;9.02;;;6.00;99.90;;;;;;5033487;28;20511;-65
2022/11/12 02:30:38;;;;;;;15.88;11.25;;;6.30;99.90;;;;;;5046944;28;20127;-65
2022/11/12 02:33:04;;;;;;;18.33;10.38;;;6.20;99.90;;;;;;5032160;28;20067;-65
2022/11/12 02:35:30;;;;;;;13.25;9.43;;;6.20;99.90;;;;;;5047348;28;20044;-64
2022/11/12 02:37:56;;;;;;;16.40;11.13;;;6.10;99.90;;;;;;5033429;28;20052;-65
2022/11/12 02:40:22;;;;;;;17.70;11.00;;;;;;;;;;5032025;28;20411;-65
2022/11/12 02:42:47;;;;;;;16.77;11.32;;;6.20;99.90;;;;;;5031873;28;20517;-65
2022/11/12 02:45:14;;;;;;;18.35;12.07;;;6.10;99.90;;;;;;5043191;28;20120;-65
2022/11/12 02:47:42;;;;;;;17.83;12.35;;;6.20;99.90;;;;;;5052954;28;20059;-65
2022/11/12 02:50:09;;;;;;;21.63;13.55;;;;;;;;;;5052830;28;20041;-64
2022/11/12 02:52:35;;;;;;;20.40;14.05;;;6.20;99.90;;;;;;5051883;28;20526;-65
2022/11/12 02:55:00;;;;;;;24.25;14.93;;;6.40;99.90;;;;;;5052920;28;20033;-65
2022/11/12 02:57:26;;;;;;;21.10;14.02;;;6.20;99.90;;;;;;5052870;28;20124;-65
2022/11/12 02:59:51;;;;;;;22.00;14.05;;;6.30;99.90;;;;;;5034044;28;20449;-65
2022/11/12 03:02:17;;;;;;;19.88;12.38;;;6.20;99.90;;;;;;5032938;28;20045;-65
2022/11/12 03:04:42;;;;;;;20.05;11.85;;;6.20;99.90;;;;;;5045337;28;20057;-65
2022/11/12 03:07:08;;;;;;;23.65;14.52;;;6.20;99.90;;;;;;5032477;28;20415;-65
2022/11/12 03:09:34;;;;;;;22.25;14.95;;;6.10;99.90;;;;;;5033265;28;20412;-65
2022/11/12 03:11:59;;;;;;;21.42;13.93;;;6.20;99.90;;;;;;5051434;28;20112;-65
2022/11/12 03:14:25;;;;;;;22.52;13.90;;;6.20;99.90;;;;;;5040214;28;20191;-65
2022/11/12 03:16:50;;;;;;;22.35;13.50;;;6.20;99.90;;;;;;5046674;28;20037;-65
2022/11/12 03:19:16;;;;;;;26.20;14.05;;;6.10;99.90;;;;;;5031504;28;20124;-65
2022/11/12 03:21:42;;;;;;;25.00;15.48;;;;;;;;;;5036851;28;20064;-65
2022/11/12 03:24:08;;;;;;;21.88;13.35;;;6.20;99.90;;;;;;5050095;28;20372;-65
2022/11/12 03:26:33;;;;;;;21.60;13.95;;;6.20;99.90;;;;;;5040871;28;20053;-65
2022/11/12 03:28:59;;;;;;;20.23;14.32;;;6.20;99.90;;;;;;5034891;28;20436;-65
2022/11/12 03:31:25;;;;;;;18.63;11.80;;;6.20;99.90;;;;;;5052475;28;20045;-65
2022/11/12 03:33:51;;;;;;;20.60;13.13;;;6.20;99.90;;;;;;5033943;28;20037;-65
2022/11/12 03:36:16;;;;;;;19.35;12.20;;;6.10;99.90;;;;;;5032689;28;20029;-65
2022/11/12 03:38:42;;;;;;;15.57;9.65;;;5.90;99.90;;;;;;5032863;28;20033;-65
2022/11/12 03:41:07;;;;;;;10.98;8.30;;;5.60;99.90;;;;;;5049634;28;20036;-65
2022/11/12 03:43:33;;;;;;;11.32;8.80;;;5.60;99.90;;;;;;5049194;28;20037;-65
2022/11/12 03:45:58;;;;;;;14.40;9.60;;;5.50;99.90;;;;;;5052269;28;20124;-65
2022/11/12 03:48:24;;;;;;;11.00;8.20;;;5.60;99.90;;;;;;5034213;28;20088;-65
2022/11/12 03:50:49;;;;;;;13.35;9.13;;;5.60;99.90;;;;;;5032262;28;20052;-65
2022/11/12 03:53:15;;;;;;;22.38;11.75;;;5.30;99.90;;;;;;5032541;28;20036;-65
2022/11/12 03:55:40;;;;;;;17.70;12.48;;;5.30;99.90;;;;;;5031087;28;20044;-65
2022/11/12 03:58:06;;;;;;;16.42;10.65;;;5.20;99.90;;;;;;5046606;28;20041;-65
2022/11/12 04:00:32;;;;;;;16.23;10.88;;;5.50;99.90;;;;;;5039002;28;20053;-65
2022/11/12 04:02:58;;;;;;;18.60;9.38;;;5.30;99.90;;;;;;5038610;28;20037;-65
2022/11/12 04:10:58;;;;;;;14.30;9.63;;;5.10;99.90;;;;;;5031000;28;20053;-65
2022/11/12 04:13:29;;;;;;;20.75;8.68;;;5.00;99.90;;;;;;5030906;28;20033;-65
2022/11/12 04:26:21;;;;;;;14.25;7.60;;;;;;;;;;5036172;28;20072;-63
2022/11/12 04:26:58;;;;;;;46.72;9.13;;;4.90;99.90;;;;;;5034474;28;20373;-65
2022/11/12 04:32:08;;;;;;;47.88;12.13;;;5.20;99.90;;;;;;5049607;28;20040;-65
2022/11/12 04:34:34;;;;;;;23.80;10.77;;;5.00;99.90;;;;;;5035609;28;20034;-65
2022/11/12 04:37:04;;;;;;;31.70;10.60;;;;;;;;;;5035420;28;20042;-65
2022/11/12 04:39:30;;;;;;;38.30;12.60;;;5.10;99.90;;;;;;5034747;28;20037;-65
2022/11/12 04:44:58;;;;;;;26.27;15.88;;;5.40;99.90;;;;;;5041056;28;20041;-65
2022/11/12 04:47:25;;;;;;;21.73;14.15;;;5.40;99.90;;;;;;5038976;28;20125;-65
2022/11/12 04:49:50;;;;;;;26.58;16.52;;;5.60;99.90;;;;;;5033992;28;20056;-65
2022/11/12 04:52:16;;;;;;;37.92;15.30;;;5.50;99.90;;;;;;5034193;28;20037;-65
2022/11/12 04:54:42;;;;;;;32.75;14.63;;;5.50;99.90;;;;;;5035205;28;20038;-65
2022/11/12 04:57:08;;;;;;;53.05;15.13;;;5.50;99.90;;;;;;5035181;28;20051;-65
2022/11/12 04:59:34;;;;;;;50.03;15.48;;;5.50;99.90;;;;;;5033743;28;20041;-65
2022/11/12 05:01:59;;;;;;;47.25;16.45;;;5.70;99.90;;;;;;5033754;28;20037;-65
2022/11/12 05:04:28;;;;;;;59.03;15.05;;;5.40;99.90;;;;;;5033399;28;20136;-65
2022/11/12 05:06:55;;;;;;;52.95;15.70;;;5.60;99.90;;;;;;5034983;28;20120;-65
2022/11/12 05:09:24;;;;;;;41.10;16.63;;;5.40;99.90;;;;;;5035334;28;20050;-65
2022/11/12 05:11:50;;;;;;;26.35;15.23;;;5.40;99.90;;;;;;5033517;28;20069;-65
2022/11/12 05:14:15;;;;;;;29.38;17.05;;;5.30;99.90;;;;;;5034819;28;20045;-65
2022/11/12 05:16:41;;;;;;;23.95;16.42;;;5.30;99.90;;;;;;5034621;28;20044;-65
2022/11/12 05:19:07;;;;;;;24.23;16.80;;;5.30;99.90;;;;;;5033507;28;20045;-65
2022/11/12 05:24:16;;;;;;;39.40;17.00;;;5.40;99.90;;;;;;5034581;28;20042;-65
2022/11/12 05:26:42;;;;;;;51.35;16.13;;;5.40;99.90;;;;;;5034606;28;20030;-65
2022/11/12 05:29:08;;;;;;;59.60;15.82;;;;;;;;;;5034447;28;20037;-64
2022/11/12 05:31:33;;;;;;;44.03;14.50;;;5.50;99.90;;;;;;5033035;28;20484;-65
2022/11/12 05:33:59;;;;;;;40.03;16.08;;;5.40;99.90;;;;;;5048379;28;20037;-65
2022/11/12 05:36:25;;;;;;;38.55;14.35;;;5.40;99.90;;;;;;5034669;28;20041;-65
2022/11/12 05:38:50;;;;;;;40.58;16.90;;;5.50;99.90;;;;;;5034523;28;20034;-65
2022/11/12 05:41:17;;;;;;;24.95;17.13;;;;;;;;;;5033097;28;20051;-64
2022/11/12 05:43:42;;;;;;;30.48;19.00;;;5.40;99.90;;;;;;5033179;28;20049;-64
2022/11/12 05:46:08;;;;;;;29.42;19.65;;;5.40;99.90;;;;;;5032832;28;20103;-65
2022/11/12 05:48:33;;;;;;;28.65;17.15;;;5.40;99.90;;;;;;5034491;28;20038;-65
2022/11/12 05:50:59;;;;;;;31.00;19.58;;;5.50;99.90;;;;;;5034042;28;20432;-65
2022/11/12 05:53:24;;;;;;;32.50;20.23;;;5.80;99.90;;;;;;5034112;28;20040;-65
2022/11/12 05:55:50;;;;;;;24.83;16.75;;;5.60;99.90;;;;;;5034263;28;20072;-65
2022/11/12 05:58:16;;;;;;;21.42;15.85;;;5.60;99.90;;;;;;5033971;28;20091;-65
2022/11/12 06:00:41;;;;;;;26.63;16.42;;;5.60;99.90;;;;;;5033701;28;20574;-65
2022/11/12 06:03:08;;;;;;;25.27;16.95;;;5.70;99.90;;;;;;5032654;28;20484;-65
2022/11/12 06:05:35;;;;;;;24.48;16.33;;;5.70;99.90;;;;;;5042182;28;20507;-65
2022/11/12 06:08:02;;;;;;;27.17;18.38;;;5.70;99.90;;;;;;5039834;28;20161;-65
2022/11/12 06:10:28;;;;;;;29.75;18.80;;;5.70;99.90;;;;;;5033949;28;20045;-65
2022/11/12 06:12:54;;;;;;;23.65;15.82;;;5.70;99.90;;;;;;5032395;28;20044;-64
2022/11/12 06:15:20;;;;;;;44.75;21.77;;;5.90;99.90;;;;;;5032210;28;20033;-65
2022/11/12 06:17:46;;;;;;;48.03;21.85;;;5.90;99.90;;;;;;5033730;28;20105;-66
2022/11/12 06:20:11;;;;;;;39.13;20.23;;;5.90;99.90;;;;;;5033729;28;20119;-65
2022/11/12 06:22:37;;;;;;;30.65;16.10;;;5.90;99.90;;;;;;5033601;28;20033;-65
2022/11/12 06:25:04;;;;;;;37.38;15.63;;;5.90;99.90;;;;;;5033638;28;20041;-65
2022/11/12 06:27:30;;;;;;;52.55;19.23;;;6.00;99.90;;;;;;5032237;28;20041;-65
2022/11/12 06:29:56;;;;;;;55.03;18.90;;;6.00;99.90;;;;;;5033124;28;20044;-65
2022/11/12 06:32:22;;;;;;;34.20;17.35;;;6.00;99.90;;;;;;5033451;28;20065;-65
2022/11/12 06:34:49;;;;;;;37.70;16.45;;;5.90;99.90;;;;;;5045619;28;20487;-65
2022/11/12 06:37:15;;;;;;;53.40;19.33;;;6.10;99.90;;;;;;5033320;28;20049;-65
2022/11/12 06:39:40;;;;;;;53.00;19.52;;;6.10;99.90;;;;;;5032010;28;20048;-65
2022/11/12 06:42:06;;;;;;;80.75;21.73;;;6.00;99.90;;;;;;5031628;28;20037;-65
2022/11/12 06:44:31;;;;;;;57.60;17.65;;;6.10;99.90;;;;;;5032034;28;20553;-65
2022/11/12 06:46:57;;;;;;;99.20;19.48;;;6.10;99.90;;;;;;5033351;28;20041;-65
2022/11/12 06:49:22;;;;;;;93.30;24.40;;;6.00;99.90;;;;;;5033574;28;20117;-65
2022/11/12 06:51:50;;;;;;;81.20;22.70;;;6.10;99.90;;;;;;5033071;28;20120;-65
2022/11/12 06:54:15;;;;;;;70.18;22.08;;;6.20;99.90;;;;;;5032455;28;20075;-65
2022/11/12 06:56:41;;;;;;;78.53;19.98;;;6.10;99.90;;;;;;5046710;28;20029;-65
2022/11/12 06:59:06;;;;;;;84.68;22.60;;;6.20;99.90;;;;;;5031545;28;20164;-65
2022/11/12 07:01:32;;;;;;;85.35;21.95;;;6.00;99.90;;;;;;5033136;28;20037;-65
2022/11/12 07:03:58;;;;;;;82.20;20.15;;;6.00;99.90;;;;;;5031465;28;20053;-65
2022/11/12 07:06:24;;;;;;;81.85;23.67;;;6.10;99.90;;;;;;5031579;28;20045;-65
2022/11/12 07:08:50;;;;;;;57.83;21.45;;;6.10;99.90;;;;;;5035372;28;20051;-65
2022/11/12 07:11:17;;;;;;;82.70;24.67;;;6.10;99.90;;;;;;5031384;28;20411;-65
2022/11/12 07:13:43;;;;;;;60.30;22.08;;;6.30;99.90;;;;;;5032654;28;20087;-64
2022/11/12 07:16:10;;;;;;;71.75;21.38;;;6.20;99.90;;;;;;5043899;28;20044;-65
2022/11/12 07:18:36;;;;;;;55.10;22.08;;;6.10;99.90;;;;;;5032459;28;20041;-65
2022/11/12 07:21:07;;;;;;;72.88;24.30;;;6.00;99.90;;;;;;5032972;28;20083;-65
2022/11/12 07:23:34;;;;;;;76.50;23.30;;;6.00;99.90;;;;;;5046650;28;20327;-65
2022/11/12 07:26:03;;;;;;;56.70;23.67;;;6.20;99.90;;;;;;5031320;28;20098;-65
2022/11/12 07:28:29;;;;;;;70.68;23.80;;;6.20;99.90;;;;;;5031428;28;20091;-65
2022/11/12 07:30:59;;;;;;;63.00;21.52;;;;;;;;;;5035195;28;20049;-65
2022/11/12 07:33:25;;;;;;;60.85;21.60;;;6.20;99.90;;;;;;5039886;28;20045;-64
2022/11/12 07:36:09;;;;;;;64.13;22.85;;;6.30;99.90;;;;;;5030856;28;20033;-65
2022/11/12 07:38:37;;;;;;;52.95;21.48;;;6.40;99.90;;;;;;5030522;28;20069;-64
2022/11/12 07:41:05;;;;;;;47.63;18.40;;;6.60;99.90;;;;;;5030820;28;20116;-65
2022/11/12 07:43:32;;;;;;;36.67;18.27;;;;;;;;;;5030425;28;20446;-64
2022/11/12 07:46:07;;;;;;;39.03;18.42;;;6.30;99.90;;;;;;5030420;28;20045;-64
2022/11/12 07:48:33;;;;;;;43.25;18.10;;;6.50;99.90;;;;;;5030912;28;20037;-64
2022/11/12 07:51:04;;;;;;;51.13;18.35;;;6.50;99.90;;;;;;5045519;28;20049;-65
2022/11/12 07:53:30;;;;;;;47.45;18.33;;;;;;;;;;5030669;28;20108;-65
2022/11/12 07:55:57;;;;;;;48.17;17.90;;;;;;;;;;5049431;28;20037;-64
2022/11/12 07:58:24;;;;;;;59.63;20.05;;;6.50;99.90;;;;;;5035598;28;20037;-64
2022/11/12 08:00:50;;;;;;;68.85;19.17;;;;;;;;;;5036204;28;20048;-65
2022/11/12 08:03:16;;;;;;;89.90;19.98;;;;;;;;;;5045001;28;20037;-65
2022/11/12 08:05:42;;;;;;;68.82;21.15;;;;;;;;;;5034182;28;20515;-65
2022/11/12 08:08:08;;;;;;;78.57;21.73;;;6.60;99.90;;;;;;5035629;28;20511;-65
2022/11/12 08:10:34;;;;;;;94.45;23.08;;;6.60;99.90;;;;;;5033865;28;20048;-65
2022/11/12 08:13:00;;;;;;;144.52;29.13;;;;;;;;;;5034837;28;20038;-66
2022/11/12 08:15:25;;;;;;;115.25;24.20;;;6.70;99.90;;;;;;5035832;28;20044;-65
2022/11/12 08:17:51;;;;;;;168.20;29.35;;;6.60;99.90;;;;;;5035951;28;20076;-66
2022/11/12 08:20:16;;;;;;;112.38;26.70;;;6.50;99.90;;;;;;5040277;28;20116;-66
2022/11/12 08:22:42;;;;;;;117.47;28.55;;;6.60;99.90;;;;;;5044874;28;20575;-65
2022/11/12 08:25:07;;;;;;;141.40;27.38;;;6.60;99.90;;;;;;5035846;28;20049;-66
2022/11/12 08:27:34;;;;;;;123.97;29.85;;;6.60;99.90;;;;;;5043462;28;20041;-65
2022/11/12 08:29:59;;;;;;;191.88;34.83;;;6.60;99.90;;;;;;5039471;28;20052;-65
2022/11/12 08:32:25;;;;;;;166.88;36.03;;;6.40;99.90;;;;;;5033923;28;20045;-66
2022/11/12 08:34:50;;;;;;;177.90;35.88;;;6.90;99.90;;;;;;5034650;28;20029;-66
2022/11/12 08:37:16;;;;;;;228.65;38.30;;;6.80;99.90;;;;;;5035252;28;20087;-65
2022/11/12 08:39:42;;;;;;;198.43;37.05;;;6.70;99.90;;;;;;5033574;28;20088;-66
2022/11/12 08:42:07;;;;;;;193.45;41.55;;;6.70;99.90;;;;;;5037852;28;20037;-65
2022/11/12 08:44:33;;;;;;;201.02;39.47;;;6.80;99.90;;;;;;5039864;28;20480;-66
2022/11/12 08:46:58;;;;;;;241.90;44.38;;;7.10;99.90;;;;;;5040050;28;20528;-65
2022/11/12 08:49:24;;;;;;;193.18;42.22;;;6.80;99.90;;;;;;5034752;28;20034;-66
2022/11/12 08:51:51;;;;;;;173.52;37.55;;;;;;;;;;5040619;28;20041;-65
2022/11/12 08:54:16;;;;;;;200.07;42.58;;;6.80;99.90;;;;;;5027348;28;20040;-66
2022/11/12 08:56:42;;;;;;;180.10;37.97;;;6.70;99.90;;;;;;5034718;28;20044;-66
2022/11/12 08:59:07;;;;;;;128.65;36.47;;;6.70;99.90;;;;;;5035142;28;20041;-66
2022/11/12 09:01:33;;;;;;;262.70;48.22;;;6.70;99.90;;;;;;5034927;28;20163;-66
2022/11/12 09:03:58;;;;;;;169.98;37.97;;;6.70;99.90;;;;;;5034279;28;20407;-65
2022/11/12 09:06:24;;;;;;;189.63;41.95;;;6.80;99.90;;;;;;5034343;28;20084;-66
2022/11/12 09:08:50;;;;;;;185.93;42.65;;;6.80;99.90;;;;;;5034190;28;20034;-66
2022/11/12 09:11:16;;;;;;;218.88;43.55;;;6.80;99.90;;;;;;5032970;28;20040;-65
2022/11/12 09:13:42;;;;;;;171.63;43.53;;;6.80;99.90;;;;;;5034349;28;20497;-66
2022/11/12 09:16:09;;;;;;;145.07;41.10;;;;;;;;;;5034575;28;20104;-64
2022/11/12 09:18:35;;;;;;;184.60;45.15;;;6.90;99.90;;;;;;5016838;28;20042;-66
2022/11/12 09:21:05;;;;;;;183.38;44.88;;;;;;;;;;5033232;28;20380;-66
2022/11/12 09:23:33;;;;;;;227.73;50.15;;;6.90;99.90;;;;;;5033009;28;20415;-66
2022/11/12 09:25:59;;;;;;;248.57;52.65;;;7.00;99.90;;;;;;5034321;28;20041;-66
2022/11/12 09:28:24;;;;;;;188.50;46.47;;;6.90;99.90;;;;;;5032818;28;20453;-66
2022/11/12 09:30:51;;;;;;;214.00;45.78;;;6.90;99.90;;;;;;5033941;28;20045;-66
2022/11/12 09:33:31;;;;;;;254.27;53.85;;;7.00;99.90;;;;;;5035410;28;20116;-65
2022/11/12 09:36:00;;;;;;;165.32;43.97;;;7.00;99.90;;;;;;5033768;28;20064;-65
2022/11/12 09:38:25;;;;;;;184.23;45.70;;;7.00;99.90;;;;;;5033895;28;20037;-65
2022/11/12 09:40:51;;;;;;;230.55;50.72;;;6.90;99.90;;;;;;5032618;28;20112;-66
2022/11/12 09:43:22;;;;;;;206.52;48.83;;;;;;;;;;5032455;28;20049;-65
2022/11/12 09:45:49;;;;;;;185.15;47.05;;;6.90;99.90;;;;;;5042884;28;20053;-66
2022/11/12 09:48:17;;;;;;;255.85;53.80;;;;;;;;;;5032536;28;20048;-66
2022/11/12 09:50:59;;;;;;;272.13;52.53;;;7.00;99.90;;;;;;5033743;28;20045;-66
2022/11/12 09:53:32;;;;;;;236.15;52.05;;;7.00;99.90;;;;;;5032667;28;20391;-66
2022/11/12 09:55:58;;;;;;;243.00;52.03;;;7.10;99.90;;;;;;5034866;28;20045;-65
2022/11/12 09:58:25;;;;;;;181.63;47.42;;;;;;;;;;5032304;28;20048;-66
2022/11/12 10:00:55;;;;;;;166.00;50.22;;;7.00;99.90;;;;;;5032208;28;20099;-66
2022/11/12 10:03:45;;;;;;;177.35;50.83;;;7.50;99.90;;;;;;5031961;28;20046;-66
2022/11/12 10:06:13;;;;;;;125.25;46.65;;;7.50;99.90;;;;;;5033572;28;20037;-65
2022/11/12 10:08:59;;;;;;;127.35;50.42;;;7.30;99.90;;;;;;5033659;28;20395;-66
2022/11/12 10:17:54;;;;;;;100.13;47.15;;;;;;;;;;5030959;28;20046;-65
2022/11/12 10:20:37;;;;;;;95.10;46.03;;;7.50;99.90;;;;;;5032967;28;20033;-66
2022/11/12 10:23:19;;;;;;;99.57;46.03;;;7.70;99.90;;;;;;5031836;28;20058;-65
2022/11/12 10:25:48;;;;;;;78.10;42.05;;;7.80;99.90;;;;;;5033266;28;20072;-66
2022/11/12 10:28:29;;;;;;;74.65;42.10;;;7.70;99.90;;;;;;5031590;28;20041;-66
2022/11/12 10:31:00;;;;;;;77.32;42.13;;;8.00;99.90;;;;;;5045734;28;20057;-65
2022/11/12 10:33:30;;;;;;;70.38;40.63;;;8.40;99.90;;;;;;5030230;28;20526;-66
2022/11/12 10:36:09;;;;;;;66.30;39.60;;;8.30;99.90;;;;;;5036057;28;20040;-66
2022/11/12 10:38:36;;;;;;;59.10;38.03;;;8.30;99.90;;;;;;5035745;28;20510;-66
2022/11/12 10:41:26;;;;;;;60.40;36.53;;;8.50;99.90;;;;;;5032347;28;20038;-65
2022/11/12 10:43:55;;;;;;;55.45;35.70;;;8.50;99.90;;;;;;5031735;28;20511;-66
2022/11/12 10:46:28;;;;;;;52.22;34.30;;;8.60;99.90;;;;;;5029345;28;20129;-65
2022/11/12 10:48:56;;;;;;;51.33;32.92;;;;;;;;;;5028944;28;20056;-66
2022/11/12 10:51:30;;;;;;;52.38;32.97;;;;;;;;;;5029930;28;20044;-66
2022/11/12 10:53:56;;;;;;;50.53;33.27;;;;;;;;;;5035838;28;20133;-66
2022/11/12 10:56:26;;;;;;;44.63;29.40;;;;;;;;;;5028650;28;20486;-66
2022/11/12 10:59:23;;;;;;;42.95;28.55;;;9.20;99.90;;;;;;5028494;28;20047;-66
2022/11/12 11:01:57;;;;;;;38.17;27.27;;;;;;;;;;5028840;28;20507;-66
2022/11/12 11:04:36;;;;;;;43.65;30.92;;;;;;;;;;5031541;28;20088;-66
2022/11/12 11:07:06;;;;;;;38.70;26.60;;;;;;;;;;5028645;28;20108;-66
2022/11/12 11:09:33;;;;;;;39.60;26.83;;;9.30;99.90;;;;;;5029224;28;20046;-66
2022/11/12 11:11:59;;;;;;;31.50;22.88;;;9.40;99.90;;;;;;5012093;28;20052;-67
2022/11/12 11:14:33;;;;;;;30.88;22.50;;;9.30;99.90;;;;;;5029789;28;20073;-66
2022/11/12 11:17:07;;;;;;;28.17;19.00;;;;;;;;;;5029772;28;20435;-66
2022/11/12 11:19:41;;;;;;;30.27;19.02;;;9.60;99.90;;;;;;5029859;28;20052;-66
2022/11/12 11:22:16;;;;;;;32.50;21.88;;;9.40;99.90;;;;;;5028345;28;20037;-66
2022/11/12 11:24:42;;;;;;;;;;;;;;;;;;5028782;28;20049;-66
2022/11/12 11:27:26;;;;;;;27.65;18.42;;;;;;;;;;5030004;28;20302;-66
2022/11/12 11:30:07;;;;;;;25.45;19.55;;;10.10;99.90;;;;;;5033565;28;20041;-66
2022/11/12 11:32:51;;;;;;;25.25;19.15;;;10.00;99.90;;;;;;5032776;28;20041;-66
2022/11/12 11:35:20;;;;;;;24.17;18.42;;;;;;;;;;5040136;28;20045;-66
2022/11/12 11:37:58;;;;;;;23.27;17.38;;;10.10;99.90;;;;;;5033484;28;20044;-66
2022/11/12 11:40:30;;;;;;;22.42;16.25;;;10.20;99.90;;;;;;5033737;28;20045;-66
2022/11/12 11:43:05;;;;;;;24.33;18.15;;;;;;;;;;5033651;28;20045;-67
2022/11/12 11:45:31;;;;;;;25.20;18.17;;;;;;;;;;5033276;28;20469;-66
2022/11/12 11:48:25;;;;;;;26.05;17.27;;;10.60;99.90;;;;;;5032133;28;20041;-66
2022/11/12 11:51:02;;;;;;;22.83;16.88;;;10.60;99.90;;;;;;5031850;28;20050;-67
2022/11/12 11:53:43;;;;;;;25.17;16.40;;;;;;;;;;5033420;28;20557;-65
2022/11/12 11:56:13;;;;;;;22.30;16.75;;;;;;;;;;5042951;28;20044;-65
2022/11/12 11:58:58;;;;;;;22.77;16.15;;;10.70;99.90;;;;;;5037988;28;20081;-64
2022/11/12 12:01:41;;;;;;;20.85;15.93;;;10.80;99.90;;;;;;5047008;28;20060;-65
2022/11/12 12:04:26;;;;;;;24.60;16.48;;;;;;;;;;5039483;28;20393;-64
2022/11/12 12:07:19;;;;;;;25.55;15.93;;;10.90;99.90;;;;;;5042585;28;20112;-64
2022/11/12 12:09:45;;;;;;;22.50;16.35;;;11.10;99.90;;;;;;5043648;28;20043;-64
2022/11/12 12:12:53;;;;;;;21.52;15.20;;;11.30;99.90;;;;;;5042758;28;20037;-64
2022/11/12 12:15:37;;;;;;;17.65;13.35;;;11.30;99.90;;;;;;5030443;28;20389;-65
2022/11/12 12:18:29;;;;;;;21.38;16.25;;;11.20;99.90;;;;;;5033732;28;20045;-64
2022/11/12 12:20:55;;;;;;;20.27;13.38;;;;;;;;;;4999452;28;20084;-64
2022/11/12 12:23:40;;;;;;;20.67;15.07;;;11.60;99.90;;;;;;5039180;28;20419;-64
2022/11/12 12:26:31;;;;;;;21.92;14.77;;;12.30;99.90;;;;;;5033870;28;20503;-64
2022/11/12 12:29:18;;;;;;;18.27;13.30;;;12.40;99.90;;;;;;5039521;28;20040;-65
2022/11/12 12:31:54;;;;;;;17.75;12.27;;;12.60;99.90;;;;;;5044758;28;20124;-65
2022/11/12 12:34:33;;;;;;;15.77;12.07;;;13.30;99.90;;;;;;5033281;28;20069;-65
2022/11/12 12:37:12;;;;;;;16.85;11.55;;;14.70;99.90;;;;;;5036110;28;20041;-65
2022/11/12 12:39:50;;;;;;;12.10;9.88;;;15.60;99.90;;;;;;5040193;28;20530;-64
2022/11/12 12:42:29;;;;;;;12.70;9.65;;;15.90;99.90;;;;;;5033317;28;20116;-65
2022/11/12 12:45:00;;;;;;;11.82;9.63;;;16.20;99.90;;;;;;5042511;28;20041;-65
2022/11/12 12:47:29;;;;;;;12.85;9.80;;;16.50;99.90;;;;;;5033683;28;20584;-65
2022/11/12 12:49:56;;;;;;;13.13;9.23;;;15.90;99.90;;;;;;5051633;28;20091;-65
2022/11/12 12:52:22;;;;;;;13.23;9.63;;;15.90;99.90;;;;;;5041434;28;20045;-65
2022/11/12 12:54:47;;;;;;;11.85;10.05;;;15.10;99.90;;;;;;5041029;28;20103;-64
2022/11/12 12:57:35;;;;;;;11.40;8.90;;;14.70;99.90;;;;;;5042809;28;20081;-65
2022/11/12 13:00:34;;;;;;;13.88;11.15;;;14.40;99.90;;;;;;5038515;28;20557;-65
2022/11/12 13:02:59;;;;;;;12.00;9.90;;;14.10;99.90;;;;;;5041139;28;20038;-64
2022/11/12 13:05:36;;;;;;;11.75;9.70;;;14.20;99.90;;;;;;5046275;28;20057;-64
2022/11/12 13:08:06;;;;;;;16.58;9.30;;;14.00;99.90;;;;;;5036911;28;20044;-65
2022/11/12 13:10:38;;;;;;;13.93;9.52;;;14.00;99.90;;;;;;5033693;28;20048;-65
2022/11/12 13:13:18;;;;;;;11.20;9.13;;;13.90;99.90;;;;;;5047427;28;20048;-64
2022/11/12 13:15:46;;;;;;;12.75;8.88;;;13.80;99.90;;;;;;5036291;28;20052;-64
2022/11/12 13:18:38;;;;;;;14.52;9.88;;;13.70;99.90;;;;;;5039182;28;20048;-64
2022/11/12 13:21:14;;;;;;;12.93;9.52;;;13.70;99.90;;;;;;5035973;28;20528;-64
2022/11/12 13:24:09;;;;;;;12.05;9.55;;;13.40;99.90;;;;;;5053051;28;20049;-64
2022/11/12 13:26:47;;;;;;;13.47;9.57;;;13.30;99.90;;;;;;5038634;28;20056;-65
2022/11/12 13:29:28;;;;;;;13.38;8.95;;;13.40;99.90;;;;;;5040877;28;20116;-65
2022/11/12 13:32:32;;;;;;;13.27;8.80;;;13.10;99.90;;;;;;5034476;28;20037;-64